Time;durP1;ratioP1;P1;durP2;ratioP2;P2;SDS_P1;SDS_P2;PMS_P1;PMS_P2;Temp;Humidity;BMP_temperature;BMP_pressure;BME280_temperature;BME280_humidity;BME280_pressure;Samples;Min_cycle;Max_cycle;Signal;HPM_P1;HPM_P2
2023/05/27 00:00:00;;;;;;;11.37;4.43;;;;;;;;;;754547;183;942025;-67
2023/05/27 00:02:26;;;;;;;18.37;4.97;;;;;;;;;;741702;187;912880;-68
2023/05/27 00:04:52;;;;;;;16.77;4.73;;;;;;;;;;738124;187;853334;-63
2023/05/27 00:07:18;;;;;;;12.47;5.40;;;;;;;;;;735575;187;917797;-68
2023/05/27 00:09:43;;;;;;;13.43;5.63;;;;;;;;;;739320;188;918981;-63
2023/05/27 00:12:09;;;;;;;13.57;5.70;;;;;;;;;;734686;188;907562;-63
2023/05/27 00:14:35;;;;;;;13.80;4.83;;;;;;;;;;736120;188;919611;-63
2023/05/27 00:17:03;;;;;;;15.10;6.20;;;;;;;;;;739848;187;920039;-65
2023/05/27 00:19:29;;;;;;;10.50;4.80;;;;;;;;;;744767;186;820010;-67
2023/05/27 00:21:54;;;;;;;16.27;4.80;;;;;;;;;;746608;183;819029;-67
2023/05/27 00:24:20;;;;;;;7.93;4.70;;;;;;;;;;739306;187;919397;-67
2023/05/27 00:26:45;;;;;;;14.77;5.40;;;;;;;;;;740688;188;881132;-67
2023/05/27 00:29:11;;;;;;;12.50;5.37;;;;;;;;;;737630;187;918741;-62
2023/05/27 00:31:36;;;;;;;14.50;5.40;;;;;;;;;;739909;188;919565;-67
2023/05/27 00:34:02;;;;;;;13.30;5.33;;;;;;;;;;743492;187;916204;-63
2023/05/27 00:36:28;;;;;;;10.83;5.13;;;;;;;;;;738572;188;918550;-66
2023/05/27 00:38:54;;;;;;;27.27;6.50;;;;;;;;;;740905;187;917770;-67
2023/05/27 00:41:20;;;;;;;14.13;4.77;;;;;;;;;;748594;186;917543;-67
2023/05/27 00:43:46;;;;;;;10.67;4.57;;;;;;;;;;739686;186;918820;-63
2023/05/27 00:46:11;;;;;;;19.70;4.93;;;;;;;;;;739539;187;920192;-67
2023/05/27 00:48:37;;;;;;;35.65;6.00;;;;;;;;;;737286;187;915814;-67
2023/05/27 00:51:03;;;;;;;9.17;4.33;;;;;;;;;;743272;188;915792;-63
2023/05/27 00:53:29;;;;;;;21.17;6.60;;;;;;;;;;742484;187;920324;-67
2023/05/27 00:55:55;;;;;;;13.93;5.50;;;;;;;;;;740435;188;918613;-63
2023/05/27 00:58:23;;;;;;;14.43;5.00;;;;;;;;;;740731;187;918683;-62
2023/05/27 01:00:47;;;;;;;14.60;5.43;;;;;;;;;;735719;188;919393;-68
2023/05/27 01:03:12;;;;;;;12.60;5.50;;;;;;;;;;738641;187;919095;-64
2023/05/27 01:05:38;;;;;;;18.63;4.93;;;;;;;;;;744001;187;945478;-68
2023/05/27 01:08:05;;;;;;;11.07;5.30;;;;;;;;;;729642;187;920379;-63
2023/05/27 01:10:43;;;;;;;14.67;5.37;;;;;;;;;;736357;187;920262;-63
2023/05/27 01:13:10;;;;;;;11.80;4.93;;;;;;;;;;735387;187;820479;-68
2023/05/27 01:15:35;;;;;;;17.20;6.40;;;;;;;;;;741518;188;823672;-69
2023/05/27 01:18:01;;;;;;;12.03;4.80;;;;;;;;;;737424;188;919719;-64
2023/05/27 01:20:27;;;;;;;16.50;6.33;;;;;;;;;;734123;187;917925;-64
2023/05/27 01:22:53;;;;;;;15.73;6.13;;;;;;;;;;735658;188;918700;-69
2023/05/27 01:25:19;;;;;;;10.47;5.00;;;;;;;;;;746817;187;816972;-69
2023/05/27 01:27:45;;;;;;;14.73;5.83;;;;;;;;;;742512;187;816383;-64
2023/05/27 01:30:11;;;;;;;14.23;4.30;;;;;;;;;;737431;188;920650;-68
2023/05/27 01:32:42;;;;;;;16.07;6.03;;;;;;;;;;740348;187;919048;-64
2023/05/27 01:35:12;;;;;;;14.43;5.37;;;;;;;;;;739388;187;921975;-68
2023/05/27 01:37:38;;;;;;;15.67;6.70;;;;;;;;;;741296;187;918033;-64
2023/05/27 01:40:05;;;;;;;13.83;6.93;;;;;;;;;;741247;187;917357;-68
2023/05/27 01:42:30;;;;;;;17.30;5.30;;;;;;;;;;749900;187;918722;-64
2023/05/27 01:44:56;;;;;;;10.13;5.77;;;;;;;;;;735037;188;919580;-65
2023/05/27 01:47:22;;;;;;;11.77;5.90;;;;;;;;;;720504;191;919649;-69
2023/05/27 01:49:48;;;;;;;14.37;6.70;;;;;;;;;;746291;187;924771;-65
2023/05/27 01:52:14;;;;;;;11.30;7.30;;;;;;;;;;740300;187;920582;-65
2023/05/27 01:54:39;;;;;;;11.43;5.40;;;;;;;;;;740061;187;921191;-65
2023/05/27 01:57:06;;;;;;;8.97;5.50;;;;;;;;;;740994;187;919521;-65
2023/05/27 01:59:31;;;;;;;15.80;4.83;;;;;;;;;;744351;186;918359;-64
2023/05/27 02:01:57;;;;;;;16.07;5.90;;;;;;;;;;729780;190;919170;-69
2023/05/27 02:04:23;;;;;;;13.60;5.00;;;;;;;;;;742067;187;919221;-69
2023/05/27 02:06:48;;;;;;;18.07;5.10;;;;;;;;;;745684;187;894198;-65
2023/05/27 02:09:15;;;;;;;11.10;5.57;;;;;;;;;;737446;188;918943;-64
2023/05/27 02:11:40;;;;;;;18.00;6.30;;;;;;;;;;738540;187;918569;-68
2023/05/27 02:14:07;;;;;;;10.27;5.00;;;;;;;;;;741857;188;816996;-68
2023/05/27 02:16:33;;;;;;;13.00;5.20;;;;;;;;;;740957;187;814393;-69
2023/05/27 02:18:58;;;;;;;11.05;6.18;;;;;;;;;;737833;187;816507;-67
2023/05/27 02:21:23;;;;;;;11.03;5.50;;;;;;;;;;743961;187;817378;-63
2023/05/27 02:23:50;;;;;;;15.87;6.03;;;;;;;;;;735160;187;918523;-68
2023/05/27 02:26:15;;;;;;;11.70;5.87;;;;;;;;;;738202;188;918967;-68
2023/05/27 02:28:41;;;;;;;13.60;5.73;;;;;;;;;;739459;188;899933;-68
2023/05/27 02:31:07;;;;;;;18.93;6.13;;;;;;;;;;747888;187;903205;-67
2023/05/27 02:33:33;;;;;;;11.93;5.60;;;;;;;;;;737295;188;912546;-64
2023/05/27 02:35:59;;;;;;;11.93;4.83;;;;;;;;;;744552;186;920079;-62
2023/05/27 02:38:25;;;;;;;13.37;6.10;;;;;;;;;;743897;187;916412;-68
2023/05/27 02:40:50;;;;;;;20.40;6.57;;;;;;;;;;740140;188;916082;-64
2023/05/27 02:43:16;;;;;;;13.73;5.83;;;;;;;;;;741363;187;920117;-68
2023/05/27 02:45:42;;;;;;;11.57;6.97;;;;;;;;;;743591;188;920876;-64
2023/05/27 02:48:08;;;;;;;12.73;6.13;;;;;;;;;;739847;188;920149;-64
2023/05/27 02:50:34;;;;;;;11.03;5.30;;;;;;;;;;740920;187;918851;-64
2023/05/27 02:52:59;;;;;;;17.03;6.20;;;;;;;;;;740086;188;926800;-64
2023/05/27 02:55:25;;;;;;;17.73;7.10;;;;;;;;;;743571;186;920692;-68
2023/05/27 02:57:51;;;;;;;18.47;5.80;;;;;;;;;;742132;187;824403;-68
2023/05/27 03:00:17;;;;;;;18.50;7.95;;;;;;;;;;742694;186;919133;-68
2023/05/27 03:02:43;;;;;;;15.10;6.47;;;;;;;;;;745765;188;919182;-63
2023/05/27 03:05:09;;;;;;;19.48;6.47;;;;;;;;;;741801;186;917527;-69
2023/05/27 03:07:35;;;;;;;12.57;6.30;;;;;;;;;;740844;186;917029;-69
2023/05/27 03:10:00;;;;;;;10.83;6.53;;;;;;;;;;745808;187;894899;-64
2023/05/27 03:12:26;;;;;;;14.63;6.00;;;;;;;;;;740764;187;921607;-69
2023/05/27 03:14:52;;;;;;;40.47;20.03;;;;;;;;;;742524;187;819739;-69
2023/05/27 03:17:19;;;;;;;34.00;14.52;;;;;;;;;;745457;188;918801;-63
2023/05/27 03:19:45;;;;;;;59.87;27.67;;;;;;;;;;751255;186;919692;-64
2023/05/27 03:22:10;;;;;;;37.07;21.23;;;;;;;;;;738000;186;919239;-64
2023/05/27 03:24:36;;;;;;;23.00;12.60;;;;;;;;;;741077;188;915349;-69
2023/05/27 03:27:03;;;;;;;24.33;10.17;;;;;;;;;;743742;187;871402;-69
2023/05/27 03:29:28;;;;;;;15.83;8.20;;;;;;;;;;734647;186;919289;-63
2023/05/27 03:31:54;;;;;;;25.80;12.90;;;;;;;;;;734110;187;919288;-70
2023/05/27 03:34:20;;;;;;;16.17;10.97;;;;;;;;;;742867;187;919619;-64
2023/05/27 03:36:46;;;;;;;19.03;9.87;;;;;;;;;;737552;187;921203;-69
2023/05/27 03:39:12;;;;;;;28.17;15.20;;;;;;;;;;734493;188;1014992;-66
2023/05/27 03:41:37;;;;;;;28.87;11.27;;;;;;;;;;737316;188;816583;-70
2023/05/27 03:44:03;;;;;;;25.27;11.90;;;;;;;;;;736476;187;812747;-69
2023/05/27 03:46:29;;;;;;;41.27;21.50;;;;;;;;;;730116;189;922099;-64
2023/05/27 03:48:55;;;;;;;19.50;10.20;;;;;;;;;;726087;191;917424;-69
2023/05/27 03:51:21;;;;;;;17.10;10.80;;;;;;;;;;729459;190;1021047;-69
2023/05/27 03:53:47;;;;;;;19.50;7.27;;;;;;;;;;732691;188;919393;-69
2023/05/27 03:56:12;;;;;;;15.33;7.20;;;;;;;;;;731603;189;919387;-64
2023/05/27 03:58:38;;;;;;;14.60;6.67;;;;;;;;;;736493;190;918962;-69
2023/05/27 04:01:05;;;;;;;14.40;6.87;;;;;;;;;;734737;190;919020;-64
2023/05/27 04:03:31;;;;;;;17.53;7.70;;;;;;;;;;734721;189;819179;-70
2023/05/27 04:05:56;;;;;;;22.10;7.10;;;;;;;;;;742961;188;815663;-64
2023/05/27 04:08:22;;;;;;;15.63;5.63;;;;;;;;;;737254;188;921179;-71
2023/05/27 04:10:48;;;;;;;25.60;7.70;;;;;;;;;;734506;187;920203;-69
2023/05/27 04:13:13;;;;;;;16.13;7.73;;;;;;;;;;738039;186;917733;-69
2023/05/27 04:15:39;;;;;;;18.27;7.90;;;;;;;;;;737262;188;912320;-64
2023/05/27 04:18:06;;;;;;;21.97;6.50;;;;;;;;;;746407;186;900561;-64
2023/05/27 04:20:40;;;;;;;14.70;6.77;;;;;;;;;;746633;186;1018686;-70
2023/05/27 04:23:03;;;;;;;12.63;6.20;;;;;;;;;;743041;187;920970;-64
2023/05/27 04:25:29;;;;;;;21.73;7.40;;;;;;;;;;743477;187;915370;-69
2023/05/27 04:27:56;;;;;;;12.33;4.47;;;;;;;;;;738508;187;816069;-69
2023/05/27 04:30:21;;;;;;;16.58;6.90;;;;;;;;;;733785;187;915932;-64
2023/05/27 04:32:47;;;;;;;17.60;6.60;;;;;;;;;;754451;185;919652;-64
2023/05/27 04:35:13;;;;;;;20.95;6.50;;;;;;;;;;743105;187;914861;-64
2023/05/27 04:37:40;;;;;;;18.30;6.00;;;;;;;;;;739072;187;902288;-69
2023/05/27 04:40:06;;;;;;;13.00;6.70;;;;;;;;;;745386;187;915926;-69
2023/05/27 04:42:32;;;;;;;17.33;6.97;;;;;;;;;;740345;187;863587;-69
2023/05/27 04:44:57;;;;;;;12.50;6.00;;;;;;;;;;738404;187;917266;-70
2023/05/27 04:47:23;;;;;;;12.40;6.43;;;;;;;;;;746192;188;818857;-70
2023/05/27 04:49:49;;;;;;;15.93;6.43;;;;;;;;;;739622;188;918208;-70
2023/05/27 04:52:15;;;;;;;15.33;6.53;;;;;;;;;;740914;187;878813;-65
2023/05/27 04:54:41;;;;;;;17.67;6.90;;;;;;;;;;740777;187;918415;-65
2023/05/27 04:57:06;;;;;;;18.53;7.63;;;;;;;;;;735500;187;918003;-67
2023/05/27 04:59:46;;;;;;;13.63;6.90;;;;;;;;;;748343;183;1008060;-64
2023/05/27 05:04:33;;;;;;;13.40;6.80;;;;;;;;;;740108;187;917750;-64
2023/05/27 05:06:58;;;;;;;23.63;7.10;;;;;;;;;;738154;188;916643;-64
2023/05/27 05:09:24;;;;;;;17.63;7.43;;;;;;;;;;738981;188;919418;-65
2023/05/27 05:11:50;;;;;;;13.67;6.90;;;;;;;;;;739287;187;921147;-64
2023/05/27 05:14:16;;;;;;;21.37;7.30;;;;;;;;;;743465;188;913965;-64
2023/05/27 05:16:42;;;;;;;22.43;7.40;;;;;;;;;;737941;188;918394;-69
2023/05/27 05:19:08;;;;;;;13.50;5.97;;;;;;;;;;740917;188;922139;-64
2023/05/27 05:21:34;;;;;;;14.53;5.60;;;;;;;;;;747841;187;816065;-69
2023/05/27 05:23:59;;;;;;;23.60;6.67;;;;;;;;;;737662;187;912468;-63
2023/05/27 05:26:25;;;;;;;14.67;6.00;;;;;;;;;;739600;187;927584;-69
2023/05/27 05:28:51;;;;;;;13.50;6.43;;;;;;;;;;745633;186;847141;-69
2023/05/27 05:31:17;;;;;;;19.07;6.47;;;;;;;;;;736159;187;886593;-69
2023/05/27 05:33:43;;;;;;;24.10;8.40;;;;;;;;;;737613;187;919491;-70
2023/05/27 05:36:09;;;;;;;15.30;6.47;;;;;;;;;;739344;187;915595;-64
2023/05/27 05:38:35;;;;;;;16.17;6.83;;;;;;;;;;739462;187;936869;-63
2023/05/27 05:41:00;;;;;;;15.48;5.35;;;;;;;;;;739984;186;929119;-64
2023/05/27 05:43:26;;;;;;;14.43;5.40;;;;;;;;;;736703;187;914565;-68
2023/05/27 05:45:52;;;;;;;16.30;4.63;;;;;;;;;;739508;188;919315;-67
2023/05/27 05:48:18;;;;;;;14.93;5.53;;;;;;;;;;731110;187;919328;-68
2023/05/27 05:50:44;;;;;;;13.43;5.93;;;;;;;;;;733228;188;930320;-69
2023/05/27 05:53:10;;;;;;;13.43;6.07;;;;;;;;;;743285;188;912865;-63
2023/05/27 05:55:36;;;;;;;20.80;6.40;;;;;;;;;;735523;186;920347;-68
2023/05/27 05:58:01;;;;;;;15.70;6.73;;;;;;;;;;734166;187;918229;-69
2023/05/27 06:00:28;;;;;;;6.77;3.20;;;;;;;;;;736310;188;918920;-62
2023/05/27 06:02:53;;;;;;;6.87;3.53;;;;;;;;;;737316;187;917370;-63
2023/05/27 06:05:20;;;;;;;18.00;6.73;;;;;;;;;;739709;187;919269;-62
2023/05/27 06:07:46;;;;;;;10.37;6.17;;;;;;;;;;739226;188;918667;-63
2023/05/27 06:10:12;;;;;;;15.63;5.90;;;;;;;;;;739849;188;817026;-67
2023/05/27 06:12:37;;;;;;;20.57;7.40;;;;;;;;;;732735;187;917677;-68
2023/05/27 06:15:03;;;;;;;17.90;5.83;;;;;;;;;;734746;188;918064;-68
2023/05/27 06:17:29;;;;;;;15.47;7.97;;;;;;;;;;744083;187;918123;-62
2023/05/27 06:19:55;;;;;;;15.10;6.60;;;;;;;;;;738643;187;865112;-69
2023/05/27 06:22:21;;;;;;;14.00;6.03;;;;;;;;;;738515;187;920774;-69
2023/05/27 06:24:46;;;;;;;15.77;7.00;;;;;;;;;;746799;186;924882;-69
2023/05/27 06:27:12;;;;;;;14.33;6.23;;;;;;;;;;737731;187;918483;-61
2023/05/27 06:29:38;;;;;;;11.00;4.50;;;;;;;;;;737886;187;919693;-62
2023/05/27 06:32:04;;;;;;;17.70;7.00;;;;;;;;;;735285;188;919133;-67
2023/05/27 06:34:30;;;;;;;23.93;6.83;;;;;;;;;;739832;188;816997;-62
2023/05/27 06:36:56;;;;;;;14.60;6.70;;;;;;;;;;735414;189;919650;-62
2023/05/27 06:39:22;;;;;;;15.73;5.93;;;;;;;;;;742342;186;918298;-62
2023/05/27 06:41:48;;;;;;;11.17;6.73;;;;;;;;;;742696;186;919720;-62
2023/05/27 06:44:14;;;;;;;19.53;8.07;;;;;;;;;;738111;187;919488;-67
2023/05/27 06:46:39;;;;;;;23.20;8.07;;;;;;;;;;737423;187;917603;-64
2023/05/27 06:49:05;;;;;;;14.97;7.90;;;;;;;;;;741728;187;863501;-69
2023/05/27 06:51:31;;;;;;;9.80;5.07;;;;;;;;;;741918;187;895594;-67
2023/05/27 06:53:57;;;;;;;17.40;6.07;;;;;;;;;;739621;187;917575;-70
2023/05/27 06:56:23;;;;;;;18.25;6.32;;;;;;;;;;744900;188;921675;-61
2023/05/27 06:58:49;;;;;;;14.17;5.70;;;;;;;;;;743805;186;939141;-69
2023/05/27 07:01:15;;;;;;;14.40;7.20;;;;;;;;;;739781;186;919239;-70
2023/05/27 07:03:41;;;;;;;10.13;6.47;;;;;;;;;;737331;187;1705032;-62
2023/05/27 07:06:07;;;;;;;25.70;7.73;;;;;;;;;;742002;188;821214;-68
2023/05/27 07:08:33;;;;;;;18.17;5.83;;;;;;;;;;735253;188;916282;-68
2023/05/27 07:10:59;;;;;;;19.95;6.62;;;;;;;;;;736424;188;916726;-62
2023/05/27 07:13:24;;;;;;;19.17;7.43;;;;;;;;;;742840;187;922966;-68
2023/05/27 07:15:51;;;;;;;20.80;7.37;;;;;;;;;;737635;187;922508;-61
2023/05/27 07:18:16;;;;;;;23.85;7.90;;;;;;;;;;739374;187;816359;-61
2023/05/27 07:20:42;;;;;;;15.87;7.50;;;;;;;;;;743961;188;808216;-62
2023/05/27 07:23:09;;;;;;;15.17;5.60;;;;;;;;;;741993;187;845897;-69
2023/05/27 07:25:34;;;;;;;12.40;4.30;;;;;;;;;;739372;187;918915;-61
2023/05/27 07:28:00;;;;;;;12.43;4.87;;;;;;;;;;736801;186;918052;-67
2023/05/27 07:30:25;;;;;;;22.90;5.80;;;;;;;;;;743734;187;919078;-61
2023/05/27 07:32:51;;;;;;;24.80;8.50;;;;;;;;;;739994;186;918447;-68
2023/05/27 07:35:17;;;;;;;16.73;7.00;;;;;;;;;;732376;187;918080;-67
2023/05/27 07:37:43;;;;;;;14.30;5.20;;;;;;;;;;738670;187;854573;-68
2023/05/27 07:40:09;;;;;;;21.43;6.67;;;;;;;;;;738645;185;920882;-68
2023/05/27 07:42:35;;;;;;;14.25;6.12;;;;;;;;;;739532;188;920351;-67
2023/05/27 07:45:01;;;;;;;15.43;6.63;;;;;;;;;;746316;187;1053168;-67
2023/05/27 07:47:27;;;;;;;15.85;7.43;;;;;;;;;;741703;187;918564;-60
2023/05/27 07:49:52;;;;;;;15.17;6.37;;;;;;;;;;738962;186;947748;-68
2023/05/27 07:52:18;;;;;;;21.23;7.00;;;;;;;;;;738353;187;816717;-67
2023/05/27 07:54:44;;;;;;;19.63;7.20;;;;;;;;;;740086;186;841961;-67
2023/05/27 07:57:10;;;;;;;18.00;6.80;;;;;;;;;;737285;187;917466;-68
2023/05/27 07:59:36;;;;;;;11.03;4.87;;;;;;;;;;736145;188;922542;-60
2023/05/27 08:02:02;;;;;;;17.27;4.73;;;;;;;;;;743173;187;915755;-60
2023/05/27 08:04:27;;;;;;;15.63;5.27;;;;;;;;;;735276;188;919537;-67
2023/05/27 08:06:53;;;;;;;15.17;6.13;;;;;;;;;;740753;187;1019741;-61
2023/05/27 08:09:19;;;;;;;15.03;5.17;;;;;;;;;;744616;188;912098;-61
2023/05/27 08:11:45;;;;;;;14.90;6.47;;;;;;;;;;744372;187;918922;-61
2023/05/27 08:14:12;;;;;;;21.60;6.00;;;;;;;;;;739112;188;919142;-68
2023/05/27 08:16:37;;;;;;;20.20;5.75;;;;;;;;;;744525;187;1019158;-61
2023/05/27 08:19:03;;;;;;;10.93;4.53;;;;;;;;;;747443;185;918094;-61
2023/05/27 08:21:29;;;;;;;14.80;6.47;;;;;;;;;;742070;187;919305;-69
2023/05/27 08:23:56;;;;;;;20.70;5.15;;;;;;;;;;738829;188;919326;-69
2023/05/27 08:26:21;;;;;;;14.63;4.23;;;;;;;;;;745328;188;918556;-70
2023/05/27 08:28:48;;;;;;;13.93;5.07;;;;;;;;;;742554;187;921251;-69
2023/05/27 08:31:13;;;;;;;9.90;4.77;;;;;;;;;;739939;188;926407;-61
2023/05/27 08:33:39;;;;;;;11.00;6.07;;;;;;;;;;744454;187;924737;-71
2023/05/27 08:36:04;;;;;;;14.67;5.90;;;;;;;;;;738983;187;818998;-62
2023/05/27 08:38:30;;;;;;;12.50;5.70;;;;;;;;;;740618;188;818118;-69
2023/05/27 08:40:56;;;;;;;16.83;4.87;;;;;;;;;;740548;187;921719;-62
2023/05/27 08:43:22;;;;;;;13.33;5.00;;;;;;;;;;737925;187;884747;-69
2023/05/27 08:45:48;;;;;;;16.23;5.97;;;;;;;;;;739822;187;912529;-69
2023/05/27 08:48:14;;;;;;;13.60;6.10;;;;;;;;;;737052;187;915774;-70
2023/05/27 08:50:39;;;;;;;17.10;6.07;;;;;;;;;;741803;188;846065;-68
2023/05/27 08:53:05;;;;;;;8.43;2.87;;;;;;;;;;738325;187;918518;-61
2023/05/27 08:55:31;;;;;;;19.97;5.63;;;;;;;;;;744556;187;865240;-62
2023/05/27 08:57:57;;;;;;;15.13;6.07;;;;;;;;;;738964;188;930358;-69
2023/05/27 09:00:23;;;;;;;6.43;3.50;;;;;;;;;;739007;186;891822;-62
2023/05/27 09:02:49;;;;;;;14.60;5.20;;;;;;;;;;741244;186;924863;-68
2023/05/27 09:05:15;;;;;;;9.87;4.10;;;;;;;;;;748692;186;914267;-62
2023/05/27 09:07:41;;;;;;;12.50;4.43;;;;;;;;;;739581;187;816301;-62
2023/05/27 09:10:07;;;;;;;10.60;5.20;;;;;;;;;;738865;187;918395;-61
2023/05/27 09:12:33;;;;;;;16.07;5.50;;;;;;;;;;740579;187;918912;-62
2023/05/27 09:14:58;;;;;;;13.23;4.30;;;;;;;;;;747591;187;818068;-70
2023/05/27 09:17:24;;;;;;;22.50;6.80;;;;;;;;;;739502;188;914438;-62
2023/05/27 09:19:51;;;;;;;16.40;4.80;;;;;;;;;;740777;187;920164;-74
2023/05/27 09:22:18;;;;;;;14.07;4.80;;;;;;;;;;739222;188;917724;-70
2023/05/27 09:24:43;;;;;;;15.43;3.83;;;;;;;;;;738590;187;920766;-61
2023/05/27 09:27:09;;;;;;;18.60;4.30;;;;;;;;;;733927;187;919678;-62
2023/05/27 09:29:35;;;;;;;11.27;5.00;;;;;;;;;;740515;188;845943;-62
2023/05/27 09:32:01;;;;;;;12.60;4.70;;;;;;;;;;738378;188;917032;-63
2023/05/27 09:34:29;;;;;;;10.30;4.23;;;;;;;;;;736573;187;919282;-70
2023/05/27 09:36:53;;;;;;;11.90;4.83;;;;;;;;;;738801;187;942334;-62
2023/05/27 09:39:19;;;;;;;20.70;6.70;;;;;;;;;;748565;187;714155;-63
2023/05/27 09:42:00;;;;;;;13.50;4.10;;;;;;;;;;744283;186;917781;-73
2023/05/27 09:44:28;;;;;;;13.03;4.90;;;;;;;;;;739538;187;918345;-61
2023/05/27 09:46:54;;;;;;;12.20;4.83;;;;;;;;;;738220;187;821281;-62
2023/05/27 09:49:20;;;;;;;15.87;5.10;;;;;;;;;;741357;187;921098;-62
2023/05/27 09:51:45;;;;;;;21.63;5.73;;;;;;;;;;734728;187;916431;-72
2023/05/27 09:54:11;;;;;;;9.27;3.40;;;;;;;;;;736169;187;917706;-71
2023/05/27 09:56:37;;;;;;;11.93;3.70;;;;;;;;;;740721;187;917721;-70
2023/05/27 09:59:06;;;;;;;17.70;5.17;;;;;;;;;;739175;188;920319;-71
2023/05/27 10:01:29;;;;;;;20.80;6.67;;;;;;;;;;736035;187;919623;-70
2023/05/27 10:03:56;;;;;;;15.53;5.80;;;;;;;;;;737514;188;921566;-62
2023/05/27 10:06:21;;;;;;;12.63;4.47;;;;;;;;;;749816;186;920422;-69
2023/05/27 10:08:46;;;;;;;9.90;4.40;;;;;;;;;;742371;187;918870;-71
2023/05/27 10:11:12;;;;;;;11.20;5.03;;;;;;;;;;742837;186;919273;-61
2023/05/27 10:13:38;;;;;;;10.93;4.20;;;;;;;;;;745373;186;703059;-70
2023/05/27 10:16:04;;;;;;;9.90;3.83;;;;;;;;;;737747;186;919525;-69
2023/05/27 10:18:30;;;;;;;11.65;4.80;;;;;;;;;;739629;186;819546;-72
2023/05/27 10:20:57;;;;;;;16.03;4.90;;;;;;;;;;743536;187;911178;-71
2023/05/27 10:23:25;;;;;;;11.33;4.53;;;;;;;;;;741905;188;1032478;-61
2023/05/27 10:25:51;;;;;;;7.60;3.60;;;;;;;;;;739359;188;919397;-62
2023/05/27 10:28:23;;;;;;;12.33;3.90;;;;;;;;;;741260;187;1020820;-70
2023/05/27 10:30:48;;;;;;;11.00;5.03;;;;;;;;;;744332;187;918962;-71
2023/05/27 10:33:15;;;;;;;13.20;5.60;;;;;;;;;;743928;187;911638;-71
2023/05/27 10:35:41;;;;;;;9.20;3.90;;;;;;;;;;740143;188;920402;-72
2023/05/27 10:38:12;;;;;;;18.20;6.33;;;;;;;;;;749126;186;861972;-70
2023/05/27 10:40:38;;;;;;;13.70;5.00;;;;;;;;;;733177;187;936248;-72
2023/05/27 10:43:04;;;;;;;10.63;3.20;;;;;;;;;;755883;183;920611;-70
2023/05/27 10:45:31;;;;;;;11.32;4.68;;;;;;;;;;740752;186;908038;-71
2023/05/27 10:47:57;;;;;;;11.80;4.33;;;;;;;;;;743600;188;1093808;-70
2023/05/27 10:50:22;;;;;;;11.65;5.00;;;;;;;;;;736885;187;920623;-62
2023/05/27 10:52:48;;;;;;;15.70;5.27;;;;;;;;;;737940;187;898278;-61
2023/05/27 10:55:14;;;;;;;11.83;4.57;;;;;;;;;;742071;187;814672;-63
2023/05/27 10:57:40;;;;;;;14.63;5.37;;;;;;;;;;737498;187;919215;-72
2023/05/27 11:00:08;;;;;;;14.10;6.03;;;;;;;;;;736546;188;918586;-70
2023/05/27 11:02:35;;;;;;;16.47;5.23;;;;;;;;;;741722;188;918411;-71
2023/05/27 11:04:59;;;;;;;12.80;4.70;;;;;;;;;;745352;188;714611;-71
2023/05/27 11:07:25;;;;;;;13.00;5.47;;;;;;;;;;736573;187;917205;-71
2023/05/27 11:09:51;;;;;;;12.73;5.60;;;;;;;;;;739375;187;912067;-71
2023/05/27 11:12:17;;;;;;;17.17;4.87;;;;;;;;;;741012;187;852053;-62
2023/05/27 11:14:43;;;;;;;15.10;4.67;;;;;;;;;;740950;187;918812;-62
2023/05/27 11:17:11;;;;;;;15.60;4.80;;;;;;;;;;737138;188;919041;-71
2023/05/27 11:19:37;;;;;;;12.15;6.05;;;;;;;;;;745541;188;918184;-61
2023/05/27 11:22:02;;;;;;;10.30;3.60;;;;;;;;;;737610;188;920666;-71
2023/05/27 11:24:28;;;;;;;12.53;4.80;;;;;;;;;;741236;186;914930;-71
2023/05/27 11:26:55;;;;;;;14.40;5.40;;;;;;;;;;736886;186;918560;-69
2023/05/27 11:29:20;;;;;;;12.80;4.93;;;;;;;;;;740314;188;919742;-70
2023/05/27 11:31:46;;;;;;;9.97;4.80;;;;;;;;;;736005;187;919340;-70
2023/05/27 11:34:12;;;;;;;13.10;4.70;;;;;;;;;;736761;187;919398;-71
2023/05/27 11:36:38;;;;;;;20.13;5.77;;;;;;;;;;740944;187;920035;-71
2023/05/27 11:39:04;;;;;;;13.40;4.83;;;;;;;;;;741606;186;821789;-61
2023/05/27 11:41:29;;;;;;;12.37;4.20;;;;;;;;;;736646;188;923215;-72
2023/05/27 11:43:57;;;;;;;16.33;6.20;;;;;;;;;;744437;187;916843;-70
2023/05/27 11:46:23;;;;;;;11.33;4.57;;;;;;;;;;742619;187;918267;-62
2023/05/27 11:48:48;;;;;;;19.87;6.20;;;;;;;;;;739534;188;919130;-62
2023/05/27 11:51:14;;;;;;;16.80;5.13;;;;;;;;;;740693;187;920926;-62
2023/05/27 11:53:41;;;;;;;11.60;5.30;;;;;;;;;;742660;187;917130;-62
2023/05/27 11:56:07;;;;;;;19.30;7.70;;;;;;;;;;739071;187;928338;-62
2023/05/27 11:58:33;;;;;;;12.33;4.80;;;;;;;;;;739038;188;919381;-71
2023/05/27 12:00:58;;;;;;;17.07;6.63;;;;;;;;;;744532;187;918492;-62
2023/05/27 12:03:24;;;;;;;12.10;4.83;;;;;;;;;;735211;187;919005;-69
2023/05/27 12:05:50;;;;;;;13.87;5.70;;;;;;;;;;737379;187;920553;-61
2023/05/27 12:08:16;;;;;;;19.23;7.40;;;;;;;;;;740809;187;857184;-71
2023/05/27 12:10:42;;;;;;;11.33;5.00;;;;;;;;;;738494;188;815587;-61
2023/05/27 12:13:08;;;;;;;10.60;4.67;;;;;;;;;;739781;187;916982;-65
2023/05/27 12:15:34;;;;;;;16.03;5.40;;;;;;;;;;732142;187;1025846;-69
2023/05/27 12:17:59;;;;;;;8.87;4.40;;;;;;;;;;742396;188;908583;-71
2023/05/27 12:20:27;;;;;;;15.03;5.17;;;;;;;;;;734251;187;919564;-63
2023/05/27 12:22:51;;;;;;;15.90;5.70;;;;;;;;;;736930;187;816927;-70
2023/05/27 12:25:17;;;;;;;12.63;5.00;;;;;;;;;;740891;187;919001;-61
2023/05/27 12:27:44;;;;;;;18.60;7.60;;;;;;;;;;747417;186;917982;-62
2023/05/27 12:30:09;;;;;;;10.00;6.80;;;;;;;;;;733243;187;919427;-71
2023/05/27 12:32:35;;;;;;;15.73;5.40;;;;;;;;;;742222;187;919560;-63
2023/05/27 12:35:01;;;;;;;15.90;5.13;;;;;;;;;;736922;188;916913;-69
2023/05/27 12:37:27;;;;;;;15.75;5.15;;;;;;;;;;741381;186;921615;-63
2023/05/27 12:39:52;;;;;;;15.00;5.23;;;;;;;;;;743785;187;925462;-63
2023/05/27 12:42:18;;;;;;;8.53;5.07;;;;;;;;;;751082;186;920753;-70
2023/05/27 12:44:44;;;;;;;11.50;5.00;;;;;;;;;;743382;187;917766;-62
2023/05/27 12:47:10;;;;;;;12.60;4.43;;;;;;;;;;740893;187;919426;-65
2023/05/27 12:49:36;;;;;;;11.97;5.73;;;;;;;;;;741227;187;916149;-70
2023/05/27 12:52:02;;;;;;;11.73;4.40;;;;;;;;;;739408;187;919347;-70
2023/05/27 12:54:27;;;;;;;13.73;5.40;;;;;;;;;;738565;186;920789;-61
2023/05/27 12:56:53;;;;;;;9.90;4.23;;;;;;;;;;743797;187;813184;-71
2023/05/27 12:59:20;;;;;;;11.97;5.67;;;;;;;;;;745872;187;858302;-70
2023/05/27 13:01:45;;;;;;;23.57;5.20;;;;;;;;;;742669;187;919241;-62
2023/05/27 13:04:11;;;;;;;17.90;6.00;;;;;;;;;;741405;187;918842;-69
2023/05/27 13:06:37;;;;;;;13.17;4.97;;;;;;;;;;737730;188;919541;-61
2023/05/27 13:09:03;;;;;;;11.50;5.10;;;;;;;;;;745060;186;818870;-61
2023/05/27 13:11:29;;;;;;;12.00;5.30;;;;;;;;;;737193;186;919417;-61
2023/05/27 13:13:55;;;;;;;8.87;5.00;;;;;;;;;;744438;187;853258;-61
2023/05/27 13:16:20;;;;;;;14.73;4.87;;;;;;;;;;738394;186;918473;-71
2023/05/27 13:18:46;;;;;;;10.80;4.73;;;;;;;;;;736574;188;1092689;-61
2023/05/27 13:21:12;;;;;;;13.63;5.27;;;;;;;;;;742135;187;919925;-68
2023/05/27 13:23:38;;;;;;;7.07;3.27;;;;;;;;;;737560;187;918484;-69
2023/05/27 13:26:05;;;;;;;8.30;4.07;;;;;;;;;;742662;187;919613;-61
2023/05/27 13:28:29;;;;;;;13.53;5.80;;;;;;;;;;743215;187;1017499;-62
2023/05/27 13:30:56;;;;;;;10.33;4.30;;;;;;;;;;740284;187;918609;-66
2023/05/27 13:33:21;;;;;;;15.90;5.10;;;;;;;;;;743287;187;918913;-71
2023/05/27 13:35:47;;;;;;;12.00;5.07;;;;;;;;;;739203;187;917819;-62
2023/05/27 13:38:14;;;;;;;9.77;4.13;;;;;;;;;;750127;183;864412;-70
2023/05/27 13:40:39;;;;;;;11.23;4.97;;;;;;;;;;749618;183;918634;-71
2023/05/27 13:43:05;;;;;;;8.80;4.47;;;;;;;;;;743325;187;724876;-61
2023/05/27 13:45:30;;;;;;;16.00;5.40;;;;;;;;;;747160;186;812332;-61
2023/05/27 13:47:56;;;;;;;12.20;6.23;;;;;;;;;;731901;189;916605;-61
2023/05/27 13:50:22;;;;;;;13.80;4.33;;;;;;;;;;717889;194;918421;-60
2023/05/27 13:52:48;;;;;;;11.33;4.70;;;;;;;;;;745694;187;913457;-71
2023/05/27 13:55:14;;;;;;;12.13;4.40;;;;;;;;;;748756;174;915551;-71
2023/05/27 13:57:40;;;;;;;12.00;4.53;;;;;;;;;;791483;176;624202;-72
2023/05/27 14:00:06;;;;;;;12.02;4.60;;;;;;;;;;793823;176;815907;-71
2023/05/27 14:02:32;;;;;;;12.73;4.20;;;;;;;;;;804559;172;670815;-72
2023/05/27 14:04:58;;;;;;;11.90;6.13;;;;;;;;;;760049;177;918158;-72
2023/05/27 14:10:16;;;;;;;13.50;4.30;;;;;;;;;;731265;189;923469;-72
2023/05/27 14:12:43;;;;;;;16.55;5.00;;;;;;;;;;735090;191;925924;-71